createdAt,value
2019-06-07T00:01:16.462Z,18.45
2019-06-07T00:03:45.948Z,18.42
2019-06-07T00:06:21.431Z,18.44
2019-06-07T00:08:46.198Z,18.45
2019-06-07T00:11:18.623Z,18.43
2019-06-07T00:13:46.385Z,18.44
2019-06-07T00:16:19.883Z,18.44
2019-06-07T00:18:46.591Z,18.35
2019-06-07T00:21:17.789Z,18.34
2019-06-07T00:23:46.787Z,18.26
2019-06-07T00:26:19.139Z,18.25
2019-06-07T00:28:47.035Z,18.22
2019-06-07T00:31:18.208Z,18.14
2019-06-07T00:33:47.630Z,18.10
2019-06-07T00:36:18.258Z,18.06
2019-06-07T00:38:48.046Z,18.05
2019-06-07T00:41:20.218Z,18.01
2019-06-07T00:43:48.210Z,17.94
2019-06-07T00:46:18.825Z,17.87
2019-06-07T00:48:48.567Z,17.87
2019-06-07T00:51:19.593Z,17.88
2019-06-07T00:53:48.767Z,17.83
2019-06-07T00:56:20.302Z,17.78
2019-06-07T00:59:09.868Z,17.72
2019-06-07T01:01:22.693Z,17.70
2019-06-07T01:03:51.157Z,17.71
2019-06-07T01:06:22.967Z,17.65
2019-06-07T01:08:51.498Z,17.63
2019-06-07T01:11:23.491Z,17.60
2019-06-07T01:13:52.079Z,17.56
2019-06-07T01:16:23.676Z,17.53
2019-06-07T01:18:52.612Z,17.49
2019-06-07T01:21:24.847Z,17.48
2019-06-07T01:24:10.682Z,17.54
2019-06-07T01:26:26.803Z,17.59
2019-06-07T01:28:55.244Z,17.63
2019-06-07T01:31:27.816Z,17.67
2019-06-07T01:33:55.745Z,17.63
2019-06-07T01:36:29.072Z,17.58
2019-06-07T01:38:55.917Z,17.51
2019-06-07T01:41:27.847Z,17.50
2019-06-07T01:43:56.068Z,16.76
2019-06-07T01:46:26.791Z,17.51
2019-06-07T01:48:56.276Z,17.42
2019-06-07T01:51:27.911Z,17.36
2019-06-07T01:54:41.007Z,17.35
2019-06-07T01:56:29.648Z,17.32
2019-06-07T01:58:58.565Z,17.32
2019-06-07T02:01:34.737Z,17.33
2019-06-07T02:03:58.848Z,17.35
2019-06-07T02:06:32.062Z,17.38
2019-06-07T02:08:59.040Z,17.35
2019-06-07T02:11:29.404Z,17.38
2019-06-07T02:13:59.333Z,17.38
2019-06-07T02:16:31.958Z,17.34
2019-06-07T02:19:01.951Z,17.29
2019-06-07T02:21:34.077Z,17.26
2019-06-07T02:24:01.560Z,17.28
2019-06-07T02:26:32.525Z,17.35
2019-06-07T02:29:02.005Z,17.35
2019-06-07T02:31:38.685Z,17.31
2019-06-07T02:34:02.469Z,17.28
2019-06-07T02:36:39.238Z,17.32
2019-06-07T02:39:02.785Z,17.36
2019-06-07T02:41:38.571Z,17.38
2019-06-07T02:44:03.191Z,17.40
2019-06-07T02:46:44.825Z,17.47
2019-06-07T02:49:03.563Z,17.51
2019-06-07T02:51:40.712Z,17.54
2019-06-07T02:54:03.763Z,17.57
2019-06-07T02:56:44.009Z,17.63
2019-06-07T02:59:04.301Z,17.69
2019-06-07T03:01:39.442Z,17.69
2019-06-07T03:04:05.788Z,17.71
2019-06-07T03:06:39.554Z,17.74
2019-06-07T03:09:09.463Z,17.73
2019-06-07T03:11:42.086Z,17.79
2019-06-07T03:14:12.941Z,17.91
2019-06-07T03:16:50.251Z,17.96
2019-06-07T03:19:26.703Z,18.02
2019-06-07T03:21:55.985Z,18.00
2019-06-07T03:24:29.592Z,18.05
2019-06-07T03:29:29.982Z,18.19
2019-06-07T03:31:59.750Z,18.23
2019-06-07T03:34:32.648Z,18.26
2019-06-07T03:37:00.021Z,18.20
2019-06-07T03:39:29.632Z,18.17
2019-06-07T03:42:06.142Z,18.23
2019-06-07T03:44:33.920Z,18.26
2019-06-07T03:47:02.360Z,18.23
2019-06-07T03:49:37.552Z,18.22
2019-06-07T03:52:02.613Z,18.21
2019-06-07T03:54:32.139Z,18.22
2019-06-07T03:57:02.772Z,18.24
2019-06-07T03:59:37.413Z,18.26
2019-06-07T04:02:03.208Z,18.28
2019-06-07T04:04:34.662Z,18.26
2019-06-07T04:07:03.725Z,18.28
2019-06-07T04:09:38.958Z,18.27
2019-06-07T04:12:06.001Z,18.30
2019-06-07T04:14:37.701Z,18.29
2019-06-07T04:17:06.497Z,18.31
2019-06-07T04:19:42.034Z,18.32
2019-06-07T04:22:08.387Z,18.34
2019-06-07T04:24:40.156Z,18.37
2019-06-07T04:27:08.512Z,18.45
2019-06-07T04:30:04.828Z,18.49
2019-06-07T04:32:09.315Z,18.49
2019-06-07T04:34:42.900Z,18.47
2019-06-07T04:37:10.601Z,18.45
2019-06-07T04:39:45.087Z,18.45
2019-06-07T04:42:13.453Z,18.48
2019-06-07T04:44:43.073Z,18.53
2019-06-07T04:47:14.846Z,18.57
2019-06-07T04:49:47.030Z,18.64
2019-06-07T04:52:16.264Z,18.73
2019-06-07T04:54:46.025Z,18.93
2019-06-07T04:57:15.559Z,19.07
2019-06-07T05:02:16.171Z,19.37
2019-06-07T05:04:45.432Z,19.54
2019-06-07T05:07:14.756Z,19.69
2019-06-07T05:09:44.023Z,19.87
2019-06-07T05:12:13.273Z,20.04
2019-06-07T05:14:44.273Z,20.19
2019-06-07T05:17:13.469Z,20.32
2019-06-07T05:19:44.782Z,20.44
2019-06-07T05:22:14.375Z,20.49
2019-06-07T05:24:43.881Z,20.56
2019-06-07T05:27:13.445Z,20.61
2019-06-07T05:29:45.930Z,20.69
2019-06-07T05:32:14.941Z,20.77
2019-06-07T05:34:47.403Z,20.83
2019-06-07T05:37:15.151Z,20.92
2019-06-07T05:39:46.487Z,21.02
2019-06-07T05:42:15.783Z,21.13
2019-06-07T05:44:45.892Z,21.24
2019-06-07T05:47:15.290Z,21.38
2019-06-07T05:49:47.139Z,21.47
2019-06-07T05:52:16.750Z,21.51
2019-06-07T05:54:47.096Z,21.61
2019-06-07T05:57:16.582Z,21.69
2019-06-07T05:59:47.437Z,21.79
2019-06-07T06:02:22.577Z,21.87
2019-06-07T06:04:49.215Z,21.94
2019-06-07T06:07:18.957Z,21.98
2019-06-07T06:09:48.156Z,22.06
2019-06-07T06:12:33.860Z,22.17
2019-06-07T06:14:48.394Z,22.29
2019-06-07T06:17:17.595Z,22.41
2019-06-07T06:19:50.432Z,22.50
2019-06-07T06:22:17.402Z,22.56
2019-06-07T06:25:17.143Z,22.65
2019-06-07T06:27:55.613Z,22.73
2019-06-07T06:29:50.411Z,22.84
2019-06-07T06:34:53.898Z,22.92
2019-06-07T06:37:22.077Z,22.98
2019-06-07T06:39:51.256Z,23.09
2019-06-07T06:42:20.488Z,23.22
2019-06-07T06:44:54.027Z,23.15
2019-06-07T06:47:20.959Z,23.47
2019-06-07T06:49:54.248Z,23.61
2019-06-07T06:52:21.149Z,23.73
2019-06-07T06:54:59.727Z,23.85
2019-06-07T06:57:21.329Z,24.02
2019-06-07T06:59:52.710Z,24.18
2019-06-07T07:02:21.785Z,24.33
2019-06-07T07:04:53.483Z,24.41
2019-06-07T07:07:22.056Z,24.43
2019-06-07T07:09:57.486Z,24.53
2019-06-07T07:12:22.401Z,24.68
2019-06-07T07:14:52.972Z,24.81
2019-06-07T07:17:46.676Z,24.90
2019-06-07T07:19:55.651Z,24.92
2019-06-07T07:22:24.490Z,25.07
2019-06-07T07:24:54.979Z,25.13
2019-06-07T07:27:24.301Z,25.22
2019-06-07T07:30:22.770Z,25.26
2019-06-07T07:32:24.532Z,25.30
2019-06-07T07:35:00.012Z,25.48
2019-06-07T07:37:24.967Z,25.81
2019-06-07T07:40:01.412Z,26.42
2019-06-07T07:42:25.162Z,27.02
2019-06-07T07:44:56.517Z,27.07
2019-06-07T07:47:25.504Z,27.19
2019-06-07T07:49:58.554Z,27.07
2019-06-07T07:52:26.224Z,26.92
2019-06-07T07:54:56.684Z,26.75
2019-06-07T07:57:26.374Z,26.64
2019-06-07T08:00:17.584Z,26.49
2019-06-07T08:02:27.558Z,26.30
2019-06-07T08:07:28.245Z,26.28
2019-06-07T08:10:01.009Z,26.26
2019-06-07T08:12:28.699Z,26.31
2019-06-07T08:15:02.413Z,26.38
2019-06-07T08:17:28.827Z,26.41
2019-06-07T08:20:02.576Z,26.41
2019-06-07T08:22:29.033Z,26.46
2019-06-07T08:25:02.360Z,26.59
2019-06-07T08:27:29.318Z,26.67
2019-06-07T08:30:15.624Z,26.83
2019-06-07T08:32:29.712Z,26.99
2019-06-07T08:35:05.631Z,27.08
2019-06-07T08:38:13.380Z,27.16
2019-06-07T08:40:01.905Z,27.56
2019-06-07T08:42:37.286Z,27.67
2019-06-07T08:45:05.501Z,27.59
2019-06-07T08:47:33.466Z,27.59
2019-06-07T08:50:07.878Z,27.78
2019-06-07T08:52:34.768Z,28.31
2019-06-07T08:55:05.221Z,29.14
2019-06-07T08:57:34.794Z,29.51
2019-06-07T09:00:27.479Z,29.34
2019-06-07T09:02:35.950Z,29.02
2019-06-07T09:05:12.036Z,28.80
2019-06-07T09:07:37.594Z,28.66
2019-06-07T09:10:12.796Z,28.74
2019-06-07T09:12:38.728Z,28.91
2019-06-07T09:15:20.528Z,29.03
2019-06-07T09:18:29.633Z,28.92
2019-06-07T09:20:35.279Z,28.86
2019-06-07T09:22:42.449Z,28.62
2019-06-07T09:25:20.651Z,28.74
2019-06-07T09:27:43.165Z,28.87
2019-06-07T09:30:18.692Z,29.24
2019-06-07T09:32:44.157Z,29.69
2019-06-07T09:35:17.485Z,30.15
2019-06-07T09:40:27.097Z,31.49
2019-06-07T09:43:38.207Z,31.98
2019-06-07T09:45:20.830Z,32.51
2019-06-07T09:47:50.103Z,32.81
2019-06-07T09:50:19.534Z,32.87
2019-06-07T09:52:58.628Z,33.05
2019-06-07T09:55:24.709Z,33.51
2019-06-07T09:57:50.726Z,33.96
2019-06-07T10:00:39.963Z,34.13
2019-06-07T10:02:51.770Z,34.23
2019-06-07T10:05:21.581Z,33.94
2019-06-07T10:08:02.327Z,32.99
2019-06-07T10:12:52.850Z,32.68
2019-06-07T10:15:22.096Z,32.63
2019-06-07T10:17:51.370Z,32.73
2019-06-07T10:20:20.685Z,32.40
2019-06-07T10:22:49.956Z,32.29
2019-06-07T10:25:19.286Z,32.08
2019-06-07T10:27:48.558Z,31.74
2019-06-07T10:30:17.762Z,31.66
2019-06-07T10:32:46.995Z,31.62
2019-06-07T10:35:16.686Z,31.87
2019-06-07T10:37:46.285Z,32.02
2019-06-07T10:40:17.246Z,31.74
2019-06-07T10:42:46.478Z,31.58
2019-06-07T10:45:16.605Z,31.69
2019-06-07T10:47:45.879Z,31.83
2019-06-07T10:50:16.089Z,31.98
2019-06-07T10:52:45.419Z,31.59
2019-06-07T10:55:15.056Z,31.20
2019-06-07T10:57:45.487Z,31.26
2019-06-07T11:00:15.692Z,31.16
2019-06-07T11:02:44.971Z,31.69
2019-06-07T11:05:14.805Z,31.98
2019-06-07T11:07:44.015Z,32.06
2019-06-07T11:10:19.479Z,32.39
2019-06-07T11:12:45.422Z,32.40
2019-06-07T11:15:15.052Z,32.20
2019-06-07T11:17:44.619Z,31.90
2019-06-07T11:20:15.674Z,31.79
2019-06-07T11:22:44.971Z,31.46
2019-06-07T11:25:14.930Z,31.51
2019-06-07T11:27:44.113Z,31.31
2019-06-07T11:30:14.534Z,31.15
2019-06-07T11:32:44.074Z,30.83
2019-06-07T11:35:15.407Z,30.73
2019-06-07T11:37:45.002Z,30.53
2019-06-07T11:40:30.822Z,30.42
2019-06-07T11:42:45.786Z,30.53
2019-06-07T11:45:15.547Z,30.50
2019-06-07T11:47:45.131Z,30.64
2019-06-07T11:50:15.804Z,30.99
2019-06-07T11:52:46.582Z,31.19
2019-06-07T11:55:16.792Z,31.01
2019-06-07T11:57:46.018Z,31.05
2019-06-07T12:00:18.595Z,30.72
2019-06-07T12:02:48.418Z,30.46
2019-06-07T12:05:20.301Z,30.12
2019-06-07T12:07:49.598Z,30.17
2019-06-07T12:10:22.826Z,30.48
2019-06-07T12:12:50.352Z,31.00
2019-06-07T12:15:20.045Z,30.87
2019-06-07T12:17:49.319Z,30.67
2019-06-07T12:20:21.113Z,30.52
2019-06-07T12:22:51.335Z,30.79
2019-06-07T12:25:24.828Z,31.09
2019-06-07T12:27:51.621Z,31.19
2019-06-07T12:30:27.327Z,31.17
2019-06-07T12:32:52.078Z,30.99
2019-06-07T12:35:21.901Z,31.14
2019-06-07T12:37:51.445Z,31.73
2019-06-07T12:40:30.149Z,32.00
2019-06-07T12:42:51.814Z,32.04
2019-06-07T12:45:40.106Z,32.27
2019-06-07T12:47:52.126Z,32.15
2019-06-07T12:50:21.743Z,30.92
2019-06-07T12:52:51.640Z,32.52
2019-06-07T12:55:22.701Z,32.14
2019-06-07T12:57:52.173Z,31.95
2019-06-07T13:00:22.341Z,32.05
2019-06-07T13:02:51.766Z,32.27
2019-06-07T13:05:21.746Z,32.51
2019-06-07T13:07:51.056Z,32.50
2019-06-07T13:10:21.951Z,32.30
2019-06-07T13:12:51.631Z,32.29
2019-06-07T13:15:23.824Z,32.70
2019-06-07T13:17:51.933Z,32.98
2019-06-07T13:20:22.711Z,32.81
2019-06-07T13:22:52.392Z,32.87
2019-06-07T13:25:23.924Z,33.04
2019-06-07T13:27:52.878Z,33.28
2019-06-07T13:30:23.431Z,33.50
2019-06-07T13:32:54.136Z,33.55
2019-06-07T13:35:23.790Z,33.28
2019-06-07T13:37:53.877Z,33.27
2019-06-07T13:40:25.105Z,33.43
2019-06-07T13:42:54.082Z,33.54
2019-06-07T13:45:24.311Z,33.69
2019-06-07T13:47:53.542Z,33.92
2019-06-07T13:50:24.050Z,33.97
2019-06-07T13:52:53.490Z,33.95
2019-06-07T13:55:23.949Z,33.92
2019-06-07T13:57:53.410Z,34.28
2019-06-07T14:00:23.121Z,34.16
2019-06-07T14:02:53.677Z,34.10
2019-06-07T14:05:23.177Z,34.09
2019-06-07T14:07:52.394Z,34.47
2019-06-07T14:10:21.785Z,34.79
2019-06-07T14:12:51.122Z,34.69
2019-06-07T14:15:20.669Z,34.08
2019-06-07T14:17:51.087Z,33.77
2019-06-07T14:20:25.835Z,33.84
2019-06-07T14:22:54.402Z,34.22
2019-06-07T14:25:25.143Z,33.77
2019-06-07T14:27:54.349Z,33.51
2019-06-07T14:30:24.025Z,33.49
2019-06-07T14:32:53.521Z,33.34
2019-06-07T14:35:22.778Z,33.82
2019-06-07T14:37:52.239Z,33.97
2019-06-07T14:40:23.251Z,33.98
2019-06-07T14:42:52.490Z,34.16
2019-06-07T14:45:21.850Z,34.44
2019-06-07T14:47:51.096Z,35.03
2019-06-07T14:50:20.339Z,35.22
2019-06-07T14:52:49.571Z,34.82
2019-06-07T14:55:18.832Z,34.55
2019-06-07T14:57:48.061Z,34.38
2019-06-07T15:00:19.225Z,34.65
2019-06-07T15:02:48.559Z,34.35
2019-06-07T15:05:19.321Z,34.28
2019-06-07T15:07:48.889Z,34.02
2019-06-07T15:10:19.185Z,33.63
2019-06-07T15:12:48.417Z,33.17
2019-06-07T15:15:18.090Z,33.50
2019-06-07T15:17:47.373Z,33.49
2019-06-07T15:20:16.576Z,33.53
2019-06-07T15:22:45.786Z,33.66
2019-06-07T15:25:15.046Z,33.58
2019-06-07T15:27:44.276Z,33.46
2019-06-07T15:30:13.854Z,33.30
2019-06-07T15:32:43.468Z,32.39
2019-06-07T15:35:12.873Z,33.04
2019-06-07T15:37:42.082Z,33.09
2019-06-07T15:40:18.002Z,33.39
2019-06-07T15:42:52.911Z,33.54
2019-06-07T15:45:19.774Z,33.60
2019-06-07T15:47:49.023Z,33.87
2019-06-07T15:50:18.436Z,33.79
2019-06-07T15:52:47.675Z,33.78
2019-06-07T15:55:17.310Z,33.68
2019-06-07T15:57:46.571Z,33.66
2019-06-07T16:00:17.823Z,33.43
2019-06-07T16:02:47.187Z,33.31
2019-06-07T16:05:18.251Z,33.33
2019-06-07T16:07:47.487Z,33.16
2019-06-07T16:10:17.542Z,33.26
2019-06-07T16:12:59.781Z,33.00
2019-06-07T16:15:20.083Z,32.05
2019-06-07T16:17:49.285Z,32.63
2019-06-07T16:20:18.570Z,32.42
2019-06-07T16:22:47.961Z,32.47
2019-06-07T16:25:17.868Z,32.50
2019-06-07T16:27:47.083Z,32.42
2019-06-07T16:30:17.866Z,32.37
2019-06-07T16:32:47.199Z,31.95
2019-06-07T16:35:17.014Z,31.47
2019-06-07T16:37:51.563Z,31.35
2019-06-07T16:40:20.239Z,31.53
2019-06-07T16:42:50.657Z,31.46
2019-06-07T16:45:20.179Z,31.50
2019-06-07T16:47:49.860Z,31.07
2019-06-07T16:50:19.393Z,30.67
2019-06-07T16:52:48.876Z,30.72
2019-06-07T16:55:18.389Z,30.96
2019-06-07T16:57:47.586Z,30.64
2019-06-07T17:00:18.715Z,30.47
2019-06-07T17:02:48.864Z,30.07
2019-06-07T17:05:18.602Z,29.25
2019-06-07T17:07:48.930Z,28.52
2019-06-07T17:10:19.296Z,28.08
2019-06-07T17:12:48.948Z,27.91
2019-06-07T17:15:19.741Z,27.75
2019-06-07T17:17:49.353Z,27.43
2019-06-07T17:20:19.509Z,27.14
2019-06-07T17:22:49.794Z,26.96
2019-06-07T17:25:19.607Z,26.73
2019-06-07T17:27:50.222Z,26.50
2019-06-07T17:30:19.726Z,26.30
2019-06-07T17:32:57.636Z,26.17
2019-06-07T17:35:20.003Z,25.91
2019-06-07T17:37:50.171Z,25.61
2019-06-07T17:40:20.295Z,25.42
2019-06-07T17:42:49.529Z,25.37
2019-06-07T17:45:19.382Z,25.33
2019-06-07T17:47:49.827Z,25.23
2019-06-07T17:50:19.325Z,25.07
2019-06-07T17:52:50.054Z,24.96
2019-06-07T17:55:19.460Z,24.79
2019-06-07T17:57:49.025Z,24.62
2019-06-07T18:00:34.844Z,24.53
2019-06-07T18:02:50.965Z,24.45
2019-06-07T18:05:20.304Z,24.24
2019-06-07T18:07:53.758Z,24.13
2019-06-07T18:10:36.498Z,24.16
2019-06-07T18:13:06.224Z,24.00
2019-06-07T18:15:41.172Z,23.87
2019-06-07T18:18:10.655Z,23.75
2019-06-07T18:20:40.576Z,23.58
2019-06-07T18:23:10.248Z,23.47
2019-06-07T18:25:39.493Z,23.40
2019-06-07T18:28:08.772Z,23.38
2019-06-07T18:30:38.872Z,23.34
2019-06-07T18:33:08.186Z,23.33
2019-06-07T18:35:37.406Z,23.29
2019-06-07T18:38:10.585Z,23.26
2019-06-07T18:40:38.154Z,23.23
2019-06-07T18:43:07.375Z,23.17
2019-06-07T18:45:36.935Z,23.07
2019-06-07T18:48:06.349Z,22.99
2019-06-07T18:50:36.082Z,22.91
2019-06-07T18:53:07.143Z,22.75
2019-06-07T18:55:36.471Z,22.60
2019-06-07T18:58:09.142Z,22.51
2019-06-07T19:00:38.516Z,22.49
2019-06-07T19:03:07.761Z,22.47
2019-06-07T19:05:36.971Z,22.39
2019-06-07T19:08:06.510Z,22.27
2019-06-07T19:10:36.128Z,22.21
2019-06-07T19:13:05.582Z,22.12
2019-06-07T19:15:35.041Z,22.03
2019-06-07T19:18:04.357Z,21.98
2019-06-07T19:20:33.660Z,21.92
2019-06-07T19:23:02.949Z,21.88
2019-06-07T19:25:32.167Z,21.87
2019-06-07T19:28:01.390Z,21.82
2019-06-07T19:30:30.680Z,21.74
2019-06-07T19:33:01.402Z,21.68
2019-06-07T19:35:31.028Z,21.65
2019-06-07T19:38:00.558Z,21.57
2019-06-07T19:40:29.812Z,21.49
2019-06-07T19:43:00.452Z,21.41
2019-06-07T19:45:31.527Z,21.37
2019-06-07T19:48:01.134Z,21.32
2019-06-07T19:50:30.387Z,21.28
2019-06-07T19:52:59.648Z,21.24
2019-06-07T19:55:28.882Z,21.19
2019-06-07T19:57:59.563Z,21.14
2019-06-07T20:00:29.039Z,21.20
2019-06-07T20:02:58.323Z,21.22
2019-06-07T20:05:27.531Z,21.17
2019-06-07T20:07:56.820Z,21.07
2019-06-07T20:10:26.052Z,20.98
2019-06-07T20:12:56.548Z,20.92
2019-06-07T20:15:29.060Z,20.84
2019-06-07T20:17:57.176Z,20.77
2019-06-07T20:20:29.886Z,20.69
2019-06-07T20:22:59.032Z,20.61
2019-06-07T20:25:28.353Z,20.59
2019-06-07T20:27:59.628Z,20.59
2019-06-07T20:30:28.940Z,20.59
2019-06-07T20:32:59.684Z,20.58
2019-06-07T20:35:29.180Z,20.62
2019-06-07T20:37:58.959Z,20.61
2019-06-07T20:40:28.243Z,20.62
2019-06-07T20:42:57.714Z,20.58
2019-06-07T20:45:33.569Z,20.54
2019-06-07T20:47:58.253Z,20.50
2019-06-07T20:50:27.680Z,20.47
2019-06-07T20:52:59.382Z,20.44
2019-06-07T20:55:27.884Z,20.43
2019-06-07T20:57:57.111Z,20.39
2019-06-07T21:00:26.371Z,20.40
2019-06-07T21:02:55.589Z,20.34
2019-06-07T21:05:24.807Z,20.27
2019-06-07T21:07:54.069Z,20.24
2019-06-07T21:10:23.681Z,20.18
2019-06-07T21:12:52.904Z,20.06
2019-06-07T21:15:22.244Z,19.98
2019-06-07T21:17:51.889Z,19.98
2019-06-07T21:20:21.107Z,19.97
2019-06-07T21:22:50.380Z,19.87
2019-06-07T21:25:19.600Z,19.77
2019-06-07T21:27:48.834Z,19.72
2019-06-07T21:30:18.106Z,19.65
2019-06-07T21:32:48.328Z,19.60
2019-06-07T21:35:17.584Z,19.51
2019-06-07T21:37:46.840Z,19.43
2019-06-07T21:40:16.363Z,19.36
2019-06-07T21:42:45.598Z,19.31
2019-06-07T21:45:16.569Z,19.28
2019-06-07T21:47:45.777Z,19.28
2019-06-07T21:50:15.116Z,19.25
2019-06-07T21:52:44.553Z,19.20
2019-06-07T21:55:14.484Z,19.18
2019-06-07T21:57:43.731Z,19.26
2019-06-07T22:00:17.616Z,19.30
2019-06-07T22:02:46.835Z,19.32
2019-06-07T22:05:16.153Z,19.28
2019-06-07T22:07:45.420Z,19.23
2019-06-07T22:10:14.947Z,19.17
2019-06-07T22:12:44.155Z,19.10
2019-06-07T22:15:32.028Z,19.06
2019-06-07T22:17:44.575Z,19.04
2019-06-07T22:20:14.758Z,19.04
2019-06-07T22:22:44.334Z,19.03
2019-06-07T22:25:13.564Z,19.00
2019-06-07T22:27:42.772Z,18.98
2019-06-07T22:30:12.655Z,18.98
2019-06-07T22:32:41.828Z,18.91
2019-06-07T22:35:11.108Z,18.86
2019-06-07T22:37:40.373Z,18.86
2019-06-07T22:40:10.701Z,18.84
2019-06-07T22:42:40.007Z,18.85
2019-06-07T22:45:10.902Z,18.87
2019-06-07T22:47:40.350Z,18.84
2019-06-07T22:50:10.919Z,18.87
2019-06-07T22:52:40.641Z,18.85
2019-06-07T22:55:12.100Z,18.79
2019-06-07T22:57:56.862Z,18.77
2019-06-07T23:00:27.651Z,18.71
2019-06-07T23:02:57.066Z,18.64
2019-06-07T23:05:26.323Z,18.65
2019-06-07T23:07:55.822Z,18.64
2019-06-07T23:10:25.083Z,18.54
2019-06-07T23:12:54.369Z,18.53
2019-06-07T23:15:23.671Z,18.44
2019-06-07T23:17:52.911Z,18.34
2019-06-07T23:20:23.217Z,18.30
2019-06-07T23:22:52.445Z,18.23
2019-06-07T23:25:24.346Z,18.15
2019-06-07T23:27:52.639Z,18.09
2019-06-07T23:30:22.870Z,18.09
2019-06-07T23:32:52.102Z,18.04
2019-06-07T23:35:21.373Z,17.96
2019-06-07T23:37:50.671Z,17.92
2019-06-07T23:40:21.423Z,17.89
2019-06-07T23:42:51.010Z,17.87
2019-06-07T23:45:21.739Z,17.87
2019-06-07T23:47:51.085Z,17.86
2019-06-07T23:50:21.780Z,17.84
2019-06-07T23:52:51.507Z,17.79
2019-06-07T23:55:22.335Z,17.75
2019-06-07T23:57:51.865Z,17.73
